Time;durP1;ratioP1;P1;durP2;ratioP2;P2;SDS_P1;SDS_P2;PMS_P1;PMS_P2;Temp;Humidity;BMP_temperature;BMP_pressure;BME280_temperature;BME280_humidity;BME280_pressure;Samples;Min_cycle;Max_cycle;Signal;HPM_P1;HPM_P2
2023/08/22 00:00:37;;;;;;;4.53;4.43;;;19.90;99.90;;;;;;4195583;28;20132;-59
2023/08/22 00:02:58;;;;;;;4.35;4.15;;;19.90;99.90;;;;;;4195236;28;20044;-59
2023/08/22 00:05:18;;;;;;;4.22;4.13;;;20.00;99.90;;;;;;4195772;28;20089;-59
2023/08/22 00:07:39;;;;;;;3.92;3.72;;;20.10;99.90;;;;;;4196453;28;20082;-59
2023/08/22 00:09:59;;;;;;;3.88;3.67;;;20.10;99.90;;;;;;4196722;28;20051;-59
2023/08/22 00:12:19;;;;;;;4.35;4.20;;;20.10;99.90;;;;;;4195659;28;20104;-59
2023/08/22 00:14:39;;;;;;;3.65;3.35;;;20.00;99.90;;;;;;4197336;28;20083;-59
2023/08/22 00:16:59;;;;;;;4.00;3.35;;;20.00;99.90;;;;;;4196456;28;20386;-59
2023/08/22 00:19:19;;;;;;;3.47;3.30;;;19.80;99.90;;;;;;4194307;28;20371;-59
2023/08/22 00:21:39;;;;;;;4.35;4.10;;;19.80;99.90;;;;;;4189151;28;20043;-59
2023/08/22 00:23:59;;;;;;;6.05;4.38;;;19.70;99.90;;;;;;4195608;28;20109;-59
2023/08/22 00:26:19;;;;;;;3.65;3.55;;;19.80;99.90;;;;;;4193208;28;20039;-59
2023/08/22 00:28:38;;;;;;;3.80;3.58;;;19.70;99.90;;;;;;4193956;28;20054;-59
2023/08/22 00:30:58;;;;;;;4.40;4.20;;;19.80;99.90;;;;;;4198349;28;20370;-59
2023/08/22 00:33:18;;;;;;;3.90;3.80;;;19.80;99.90;;;;;;4196046;28;20130;-59
2023/08/22 00:35:38;;;;;;;4.65;4.55;;;19.70;99.90;;;;;;4194549;28;20056;-59
2023/08/22 00:37:57;;;;;;;4.95;4.75;;;19.80;99.90;;;;;;4193801;28;20099;-59
2023/08/22 00:40:17;;;;;;;5.00;4.90;;;19.60;99.90;;;;;;4194916;28;20083;-59
2023/08/22 00:42:37;;;;;;;4.78;4.57;;;19.50;99.90;;;;;;4193259;28;20059;-59
2023/08/22 00:44:57;;;;;;;5.57;5.43;;;19.50;99.90;;;;;;4192475;28;20048;-59
2023/08/22 00:47:18;;;;;;;4.90;4.68;;;19.30;99.90;;;;;;4196464;28;20128;-59
2023/08/22 00:49:39;;;;;;;4.70;4.50;;;19.10;99.90;;;;;;4195128;28;20052;-59
2023/08/22 00:52:01;;;;;;;7.13;6.45;;;19.10;99.90;;;;;;4190446;28;20281;-59
2023/08/22 00:54:22;;;;;;;6.13;5.78;;;19.00;99.90;;;;;;4194297;28;20052;-59
2023/08/22 00:56:43;;;;;;;5.20;4.80;;;18.90;99.90;;;;;;4192502;28;20421;-59
2023/08/22 00:59:04;;;;;;;5.97;5.45;;;18.90;99.90;;;;;;4195215;28;20079;-59
2023/08/22 01:01:24;;;;;;;7.32;4.93;;;18.80;99.90;;;;;;4188972;28;20086;-59
2023/08/22 01:03:44;;;;;;;5.40;5.10;;;19.00;99.90;;;;;;4198673;22;20065;-58
2023/08/22 01:06:30;;;;;;;5.93;5.82;;;19.20;99.90;;;;;;4161518;28;20056;-58
2023/08/22 01:08:57;;;;;;;8.57;5.43;;;19.10;99.90;;;;;;4161191;28;20291;-58
2023/08/22 01:11:40;;;;;;;5.75;5.53;;;19.10;99.90;;;;;;4163639;28;20060;-58
2023/08/22 01:14:04;;;;;;;5.03;4.68;;;19.00;99.90;;;;;;4162600;28;20059;-58
2023/08/22 01:16:25;;;;;;;5.53;5.28;;;18.90;99.90;;;;;;4165790;28;20044;-57
2023/08/22 01:18:47;;;;;;;4.70;4.60;;;18.90;99.90;;;;;;4165695;28;20394;-58
2023/08/22 01:21:06;;;;;;;5.28;5.07;;;18.90;99.90;;;;;;4168356;28;20069;-58
2023/08/22 01:23:26;;;;;;;4.82;4.72;;;19.00;99.90;;;;;;4164868;28;20125;-57
2023/08/22 01:25:46;;;;;;;4.20;4.10;;;19.10;99.90;;;;;;4160632;28;20053;-58
2023/08/22 01:28:24;;;;;;;5.15;4.82;;;19.00;99.90;;;;;;4164943;28;20169;-57
2023/08/22 01:30:49;;;;;;;5.18;4.95;;;19.00;99.90;;;;;;4161639;28;20120;-58
2023/08/22 01:33:19;;;;;;;5.05;4.95;;;18.90;99.90;;;;;;4164138;28;20233;-58
2023/08/22 01:35:43;;;;;;;4.47;4.32;;;18.80;99.90;;;;;;4167118;28;20049;-58
2023/08/22 01:38:04;;;;;;;4.60;4.50;;;18.90;99.90;;;;;;4164984;28;20229;-58
2023/08/22 01:40:24;;;;;;;5.07;4.70;;;18.80;99.90;;;;;;4167934;28;20053;-58
2023/08/22 01:42:44;;;;;;;5.07;4.95;;;18.70;99.90;;;;;;4164530;28;20247;-58
2023/08/22 01:45:05;;;;;;;5.00;4.72;;;18.70;99.90;;;;;;4169542;28;20289;-58
2023/08/22 01:47:25;;;;;;;4.95;4.68;;;18.70;99.90;;;;;;4163662;28;20240;-58
2023/08/22 01:49:45;;;;;;;5.55;5.45;;;18.70;99.90;;;;;;4168214;28;20072;-58
2023/08/22 01:52:06;;;;;;;5.93;5.72;;;18.70;99.90;;;;;;4164377;28;20052;-58
2023/08/22 01:54:26;;;;;;;5.88;5.45;;;18.50;99.90;;;;;;4166989;28;20290;-58
2023/08/22 01:56:46;;;;;;;6.10;5.82;;;18.50;99.90;;;;;;4160109;28;20079;-58
2023/08/22 01:59:06;;;;;;;5.45;5.32;;;18.50;99.90;;;;;;4165515;28;20051;-58
2023/08/22 02:01:26;;;;;;;5.45;5.35;;;18.50;99.90;;;;;;4161374;28;20293;-58
2023/08/22 02:03:46;;;;;;;6.65;6.40;;;18.50;99.90;;;;;;4163684;28;20056;-58
2023/08/22 02:06:07;;;;;;;5.20;4.95;;;18.50;99.90;;;;;;4166996;28;20052;-58
2023/08/22 02:08:27;;;;;;;6.10;5.90;;;18.50;99.90;;;;;;4163053;28;20244;-58
2023/08/22 02:10:47;;;;;;;6.07;5.65;;;18.40;99.90;;;;;;4169071;28;20105;-58
2023/08/22 02:13:07;;;;;;;5.97;5.60;;;18.40;99.90;;;;;;4171136;28;20371;-57
2023/08/22 02:15:27;;;;;;;6.30;6.18;;;18.40;99.90;;;;;;4165410;28;20051;-58
2023/08/22 02:17:48;;;;;;;5.80;5.40;;;18.30;99.90;;;;;;4170559;28;20091;-58
2023/08/22 02:20:09;;;;;;;7.38;7.03;;;18.20;99.90;;;;;;4161926;28;20116;-58
2023/08/22 02:22:29;;;;;;;6.43;6.25;;;18.10;99.90;;;;;;4165681;28;20095;-58
2023/08/22 02:24:49;;;;;;;6.43;6.20;;;18.10;99.90;;;;;;4167176;28;20067;-58
2023/08/22 02:27:08;;;;;;;6.72;6.53;;;18.10;99.90;;;;;;4167502;28;20076;-57
2023/08/22 02:29:28;;;;;;;5.93;5.82;;;18.00;99.90;;;;;;4163463;28;20107;-57
2023/08/22 02:31:48;;;;;;;6.68;6.55;;;17.90;99.90;;;;;;4165240;28;20116;-58
2023/08/22 02:34:08;;;;;;;6.85;6.55;;;18.00;99.90;;;;;;4169185;28;20064;-58
2023/08/22 02:36:28;;;;;;;6.80;6.22;;;18.20;99.90;;;;;;4159763;28;20045;-58
2023/08/22 02:38:48;;;;;;;5.85;5.50;;;18.20;99.90;;;;;;4165851;28;20052;-58
2023/08/22 02:41:08;;;;;;;5.03;4.82;;;18.10;99.90;;;;;;4162124;28;20229;-58
2023/08/22 02:43:30;;;;;;;5.40;4.97;;;18.10;99.90;;;;;;4168245;28;20043;-58
2023/08/22 02:45:50;;;;;;;5.07;4.97;;;18.00;99.90;;;;;;4162235;28;20061;-58
2023/08/22 02:48:10;;;;;;;6.63;6.25;;;18.00;99.90;;;;;;4162423;28;20080;-58
2023/08/22 02:50:30;;;;;;;4.93;4.47;;;18.10;99.90;;;;;;4164081;28;20248;-58
2023/08/22 02:52:51;;;;;;;6.35;6.15;;;18.10;99.90;;;;;;4164886;28;20060;-58
2023/08/22 02:55:11;;;;;;;4.38;4.28;;;18.20;99.90;;;;;;4162384;28;20068;-58
2023/08/22 02:57:31;;;;;;;4.82;4.70;;;18.10;99.90;;;;;;4162477;28;20092;-58
2023/08/22 02:59:51;;;;;;;5.32;5.10;;;18.20;99.90;;;;;;4163683;28;20064;-58
2023/08/22 03:02:11;;;;;;;5.68;5.47;;;18.20;99.90;;;;;;4164840;28;20048;-58
2023/08/22 03:04:33;;;;;;;5.75;5.55;;;18.30;99.90;;;;;;4164713;28;20256;-58
2023/08/22 03:06:53;;;;;;;5.88;5.72;;;18.00;99.90;;;;;;4164073;28;20264;-57
2023/08/22 03:09:13;;;;;;;6.50;6.22;;;17.80;99.90;;;;;;4168919;28;20415;-58
2023/08/22 03:11:34;;;;;;;5.95;5.85;;;17.90;99.90;;;;;;4164579;28;20076;-58
2023/08/22 03:13:54;;;;;;;6.47;6.28;;;17.80;99.90;;;;;;4161136;28;20288;-57
2023/08/22 03:16:14;;;;;;;6.57;6.40;;;17.80;99.90;;;;;;4162956;28;20056;-58
2023/08/22 03:18:34;;;;;;;6.80;6.28;;;17.70;99.90;;;;;;4160736;28;20088;-58
2023/08/22 03:20:56;;;;;;;5.75;5.45;;;17.60;99.90;;;;;;4162078;28;20068;-58
2023/08/22 03:23:16;;;;;;;7.25;7.05;;;17.40;99.90;;;;;;4162524;28;20276;-58
2023/08/22 03:25:36;;;;;;;6.43;6.13;;;17.40;99.90;;;;;;4164348;28;20049;-58
2023/08/22 03:27:56;;;;;;;6.22;6.00;;;17.30;99.90;;;;;;4165502;28;20088;-58
2023/08/22 03:30:16;;;;;;;5.60;5.40;;;17.30;99.90;;;;;;4157239;28;20364;-57
2023/08/22 03:32:36;;;;;;;7.32;7.22;;;17.30;99.90;;;;;;4159849;28;20087;-58
2023/08/22 03:34:56;;;;;;;5.72;5.63;;;17.30;99.90;;;;;;4160803;28;20169;-58
2023/08/22 03:37:16;;;;;;;5.78;5.55;;;17.40;99.90;;;;;;4156399;28;20080;-58
2023/08/22 03:39:36;;;;;;;6.40;6.30;;;17.40;99.90;;;;;;4161360;28;20359;-58
2023/08/22 03:41:56;;;;;;;6.22;6.03;;;17.50;99.90;;;;;;4164813;28;20363;-58
2023/08/22 03:44:16;;;;;;;6.50;6.38;;;17.60;99.90;;;;;;4162234;28;20053;-58
2023/08/22 03:46:36;;;;;;;6.93;6.72;;;17.60;99.90;;;;;;4158921;28;20072;-57
2023/08/22 03:48:59;;;;;;;8.25;6.78;;;17.40;99.90;;;;;;4162521;28;20096;-57
2023/08/22 03:51:18;;;;;;;6.45;6.25;;;17.40;99.90;;;;;;4164721;28;20068;-58
2023/08/22 03:53:38;;;;;;;7.13;6.72;;;17.40;99.90;;;;;;4158866;28;20109;-57
2023/08/22 03:56:01;;;;;;;6.35;5.95;;;17.30;99.90;;;;;;4158983;28;20044;-57
2023/08/22 03:58:20;;;;;;;5.70;5.60;;;17.30;99.90;;;;;;4168141;28;20092;-57
2023/08/22 04:00:40;;;;;;;7.05;6.55;;;17.30;99.90;;;;;;4159786;28;20053;-57
2023/08/22 04:03:01;;;;;;;5.85;5.22;;;17.40;99.90;;;;;;4159781;28;20061;-57
2023/08/22 04:05:22;;;;;;;6.60;6.40;;;17.50;99.90;;;;;;4164355;28;20083;-58
2023/08/22 04:07:42;;;;;;;6.40;6.28;;;17.50;99.90;;;;;;4165487;28;20395;-58
2023/08/22 04:10:02;;;;;;;5.47;5.03;;;17.50;99.90;;;;;;4168220;28;20355;-58
2023/08/22 04:12:22;;;;;;;6.60;6.40;;;17.40;99.90;;;;;;4165541;28;20259;-58
2023/08/22 04:14:42;;;;;;;7.22;7.13;;;17.30;99.90;;;;;;4159153;28;20237;-57
2023/08/22 04:17:02;;;;;;;7.50;7.20;;;17.10;99.90;;;;;;4162209;28;20306;-58
2023/08/22 04:19:22;;;;;;;5.53;5.35;;;17.10;99.90;;;;;;4160643;28;20040;-58
2023/08/22 04:21:42;;;;;;;8.48;7.70;;;17.00;99.90;;;;;;4164875;28;20052;-57
2023/08/22 04:24:02;;;;;;;7.82;7.30;;;16.90;99.90;;;;;;4159989;28;20056;-57
2023/08/22 04:26:22;;;;;;;6.90;6.55;;;16.80;99.90;;;;;;4159396;28;20045;-57
2023/08/22 04:28:43;;;;;;;6.70;6.60;;;16.80;99.90;;;;;;4162441;28;20245;-58
2023/08/22 04:31:04;;;;;;;8.13;7.75;;;16.70;99.90;;;;;;4162478;28;20075;-57
2023/08/22 04:33:23;;;;;;;6.22;5.93;;;16.80;99.90;;;;;;4163340;28;20102;-58
2023/08/22 04:35:43;;;;;;;6.15;6.05;;;16.80;99.90;;;;;;4167347;28;20060;-57
2023/08/22 04:38:04;;;;;;;7.70;7.50;;;17.00;99.90;;;;;;4168433;28;20083;-58
2023/08/22 04:40:24;;;;;;;6.65;6.43;;;17.00;99.90;;;;;;4167709;28;20137;-57
2023/08/22 04:42:44;;;;;;;7.63;7.10;;;17.00;99.90;;;;;;4161771;28;20109;-58
2023/08/22 04:45:04;;;;;;;7.35;6.75;;;16.90;99.90;;;;;;4166000;28;20092;-57
2023/08/22 04:47:24;;;;;;;7.82;7.35;;;16.90;99.90;;;;;;4161050;28;20045;-57
2023/08/22 04:49:45;;;;;;;9.30;8.75;;;16.90;99.90;;;;;;4164996;28;20076;-58
2023/08/22 04:52:05;;;;;;;7.53;7.32;;;16.90;99.90;;;;;;4162877;28;20040;-58
2023/08/22 04:54:25;;;;;;;7.07;6.57;;;16.90;99.90;;;;;;4164087;28;20064;-57
2023/08/22 04:56:46;;;;;;;7.28;6.75;;;17.00;99.90;;;;;;4162008;28;20036;-57
2023/08/22 04:59:06;;;;;;;6.68;6.38;;;17.00;99.90;;;;;;4164930;28;20052;-57
2023/08/22 05:01:27;;;;;;;7.88;7.55;;;17.10;99.90;;;;;;4164907;28;20057;-58
2023/08/22 05:03:48;;;;;;;7.10;6.90;;;17.10;99.90;;;;;;4165909;28;20077;-57
2023/08/22 05:06:07;;;;;;;8.18;7.82;;;17.10;99.90;;;;;;4162801;28;20053;-58
2023/08/22 05:08:28;;;;;;;7.45;7.25;;;17.10;99.90;;;;;;4167657;28;20052;-58
2023/08/22 05:10:48;;;;;;;7.05;6.55;;;17.10;99.90;;;;;;4166071;28;20088;-58
2023/08/22 05:13:08;;;;;;;6.57;6.22;;;17.20;99.90;;;;;;4161723;28;20399;-58
2023/08/22 05:15:28;;;;;;;4.90;4.70;;;17.40;99.90;;;;;;4160329;28;20085;-58
2023/08/22 05:17:48;;;;;;;7.60;7.28;;;17.30;99.90;;;;;;4164521;28;20055;-58
2023/08/22 05:20:13;;;;;;;6.70;6.55;;;17.40;99.90;;;;;;4165992;28;20048;-55
2023/08/22 05:22:33;;;;;;;6.85;6.45;;;17.40;99.90;;;;;;4165426;28;20083;-57
2023/08/22 05:24:52;;;;;;;6.45;6.35;;;17.50;99.90;;;;;;4166883;28;20060;-56
2023/08/22 05:27:14;;;;;;;6.97;6.57;;;17.50;99.90;;;;;;4166187;28;20064;-57
2023/08/22 05:29:34;;;;;;;7.07;6.53;;;17.60;99.90;;;;;;4163533;28;20048;-57
2023/08/22 05:31:54;;;;;;;7.07;6.78;;;17.60;99.90;;;;;;4168758;28;20061;-57
2023/08/22 05:34:15;;;;;;;6.47;6.22;;;17.70;99.90;;;;;;4164987;28;20048;-56
2023/08/22 05:36:34;;;;;;;8.30;7.55;;;17.80;99.90;;;;;;4161953;28;20252;-57
2023/08/22 05:38:54;;;;;;;7.05;6.70;;;17.90;99.90;;;;;;4165991;28;20248;-56
2023/08/22 05:41:14;;;;;;;6.93;6.72;;;17.90;99.90;;;;;;4163423;28;20101;-57
2023/08/22 05:43:35;;;;;;;7.70;7.25;;;17.90;99.90;;;;;;4162663;28;20117;-57
2023/08/22 05:45:55;;;;;;;6.60;6.45;;;17.90;99.90;;;;;;4166304;28;20143;-57
2023/08/22 05:48:15;;;;;;;6.70;6.28;;;17.90;99.90;;;;;;4165282;28;20064;-56
2023/08/22 05:50:35;;;;;;;6.90;6.45;;;18.00;99.90;;;;;;4165285;28;20060;-57
2023/08/22 05:52:55;;;;;;;6.72;6.40;;;18.00;99.90;;;;;;4160634;28;20248;-57
2023/08/22 05:55:15;;;;;;;7.20;6.90;;;18.20;99.90;;;;;;4164233;28;20071;-57
2023/08/22 05:57:35;;;;;;;8.15;7.68;;;18.20;99.90;;;;;;4164183;28;20056;-57
2023/08/22 05:59:55;;;;;;;7.97;7.25;;;18.20;99.90;;;;;;4160038;28;20378;-56
2023/08/22 06:02:16;;;;;;;6.95;6.30;;;18.30;99.90;;;;;;4166135;28;20036;-57
2023/08/22 06:04:36;;;;;;;6.65;6.45;;;18.50;99.90;;;;;;4169028;28;20116;-57
2023/08/22 06:06:56;;;;;;;6.50;6.13;;;18.60;99.90;;;;;;4165525;28;20048;-57
2023/08/22 06:09:16;;;;;;;7.93;7.30;;;18.70;99.90;;;;;;4163609;28;20100;-57
2023/08/22 06:11:36;;;;;;;6.93;6.63;;;18.60;99.90;;;;;;4167917;28;20108;-57
2023/08/22 06:13:56;;;;;;;7.53;7.15;;;18.70;99.90;;;;;;4160863;28;20391;-57
2023/08/22 06:16:16;;;;;;;6.10;5.82;;;18.70;99.90;;;;;;4162061;28;20072;-57
2023/08/22 06:18:36;;;;;;;6.93;6.53;;;18.90;99.90;;;;;;4168051;28;20052;-57
2023/08/22 06:21:00;;;;;;;7.18;6.53;;;18.90;99.90;;;;;;4163551;28;20057;-57
2023/08/22 06:23:20;;;;;;;6.57;6.07;;;19.10;99.90;;;;;;4161896;28;20044;-57
2023/08/22 06:25:40;;;;;;;6.05;5.75;;;19.20;99.90;;;;;;4163714;28;20061;-57
2023/08/22 06:28:00;;;;;;;6.50;6.15;;;19.30;99.90;;;;;;4162996;28;20057;-57
2023/08/22 06:30:19;;;;;;;6.30;5.95;;;19.60;99.90;;;;;;4166310;28;20084;-57
2023/08/22 06:32:40;;;;;;;6.50;6.20;;;19.60;99.90;;;;;;4160620;28;20060;-57
2023/08/22 06:35:00;;;;;;;6.10;5.75;;;19.80;99.90;;;;;;4162863;28;20049;-58
2023/08/22 06:37:20;;;;;;;6.20;5.95;;;19.80;99.90;;;;;;4166721;28;20100;-57
2023/08/22 06:39:40;;;;;;;6.00;5.57;;;20.00;99.90;;;;;;4161125;28;20083;-57
2023/08/22 06:42:00;;;;;;;7.63;6.40;;;20.00;99.90;;;;;;4161072;28;20125;-57
2023/08/22 06:44:21;;;;;;;5.38;5.28;;;20.30;99.90;;;;;;4163405;28;20084;-57
2023/08/22 06:46:41;;;;;;;5.45;4.95;;;20.40;99.90;;;;;;4165271;28;20041;-57
2023/08/22 06:49:02;;;;;;;4.95;4.60;;;20.50;99.90;;;;;;4159122;28;20064;-57
2023/08/22 06:51:22;;;;;;;5.43;5.22;;;20.70;99.90;;;;;;4164772;28;20049;-57
2023/08/22 06:53:41;;;;;;;5.13;4.82;;;20.80;99.90;;;;;;4166633;28;20048;-57
2023/08/22 06:56:02;;;;;;;5.35;5.15;;;21.00;99.90;;;;;;4162393;28;20053;-57
2023/08/22 06:58:22;;;;;;;4.10;4.00;;;21.20;99.90;;;;;;4160790;28;20064;-57
2023/08/22 07:00:43;;;;;;;3.85;3.75;;;21.60;99.90;;;;;;4165697;28;20121;-57
2023/08/22 07:03:03;;;;;;;6.15;4.72;;;21.80;99.90;;;;;;4161982;28;20097;-57
2023/08/22 07:05:23;;;;;;;5.10;4.78;;;21.90;99.90;;;;;;4161341;28;20061;-57
2023/08/22 07:07:43;;;;;;;4.72;4.63;;;22.10;99.90;;;;;;4164700;28;20113;-58
2023/08/22 07:10:05;;;;;;;4.43;4.22;;;22.20;99.90;;;;;;4163375;28;20052;-57
2023/08/22 07:12:25;;;;;;;4.32;4.03;;;22.30;99.90;;;;;;4161084;28;20091;-57
2023/08/22 07:14:46;;;;;;;5.25;4.28;;;22.50;99.90;;;;;;4163072;28;20096;-57
2023/08/22 07:17:06;;;;;;;4.75;4.30;;;22.80;99.90;;;;;;4164898;28;20290;-57
2023/08/22 07:19:26;;;;;;;4.43;4.13;;;22.80;99.90;;;;;;4161186;28;20124;-57
2023/08/22 07:22:01;;;;;;;5.18;3.70;;;22.90;99.90;;;;;;4159903;28;20041;-57
2023/08/22 07:24:20;;;;;;;4.53;4.05;;;23.10;99.90;;;;;;4162160;28;20084;-57
2023/08/22 07:26:40;;;;;;;4.63;4.32;;;23.10;99.90;;;;;;4164567;28;20068;-57
2023/08/22 07:29:00;;;;;;;4.93;4.00;;;23.20;99.90;;;;;;4165773;28;20080;-57
2023/08/22 07:31:20;;;;;;;7.78;3.90;;;23.40;99.90;;;;;;4165210;28;20347;-57
2023/08/22 07:33:40;;;;;;;4.20;4.00;;;23.50;99.90;;;;;;4161545;28;20065;-58
2023/08/22 07:36:01;;;;;;;4.72;4.25;;;23.80;99.90;;;;;;4162031;28;20068;-57
2023/08/22 07:38:21;;;;;;;4.68;4.47;;;23.90;99.90;;;;;;4163435;28;20303;-58
2023/08/22 07:40:42;;;;;;;4.93;4.30;;;24.10;99.90;;;;;;4165271;28;20367;-57
2023/08/22 07:43:03;;;;;;;8.38;4.03;;;24.30;99.90;;;;;;4163898;28;20084;-57
2023/08/22 07:45:23;;;;;;;4.50;3.88;;;24.50;99.90;;;;;;4164974;28;20068;-57
2023/08/22 07:47:46;;;;;;;9.38;4.45;;;24.60;99.70;;;;;;4164081;28;20124;-57
2023/08/22 07:50:06;;;;;;;4.07;3.85;;;24.90;99.30;;;;;;4162467;28;20100;-58
2023/08/22 07:52:26;;;;;;;3.60;3.35;;;25.20;98.40;;;;;;4160964;28;20053;-57
2023/08/22 07:54:46;;;;;;;3.83;3.65;;;25.40;97.50;;;;;;4165861;28;20386;-57
2023/08/22 07:57:06;;;;;;;3.70;3.55;;;25.50;97.70;;;;;;4164738;28;20036;-57
2023/08/22 07:59:38;;;;;;;3.33;3.08;;;25.60;96.00;;;;;;4162821;28;20044;-57
2023/08/22 08:01:57;;;;;;;4.80;3.10;;;25.80;97.00;;;;;;4166878;28;20084;-58
2023/08/22 08:04:17;;;;;;;2.40;2.30;;;26.20;96.40;;;;;;4164822;28;20102;-58
2023/08/22 08:06:38;;;;;;;2.75;2.65;;;26.70;94.00;;;;;;4162158;28;20113;-58
2023/08/22 08:08:58;;;;;;;2.72;2.53;;;27.00;94.90;;;;;;4159993;28;20049;-58
2023/08/22 08:11:18;;;;;;;2.05;1.83;;;27.00;94.40;;;;;;4167732;28;20048;-57
2023/08/22 08:13:38;;;;;;;3.17;1.77;;;27.10;93.70;;;;;;4160926;28;20052;-58
2023/08/22 08:15:58;;;;;;;3.13;2.90;;;27.20;94.80;;;;;;4159759;28;20056;-57
2023/08/22 08:18:27;;;;;;;2.60;2.50;;;27.50;94.10;;;;;;4162562;28;20431;-58
2023/08/22 08:20:47;;;;;;;3.13;2.45;;;27.90;94.10;;;;;;4163626;28;20044;-58
2023/08/22 08:23:07;;;;;;;3.05;2.92;;;28.20;94.00;;;;;;4162330;28;20052;-58
2023/08/22 08:25:27;;;;;;;3.28;2.30;;;28.30;93.10;;;;;;4159954;28;20045;-58
2023/08/22 08:27:47;;;;;;;2.45;1.80;;;28.40;93.00;;;;;;4163517;28;20052;-58
2023/08/22 08:30:10;;;;;;;2.85;2.65;;;28.50;92.30;;;;;;4165886;28;20048;-58
2023/08/22 08:32:30;;;;;;;3.95;1.83;;;29.00;92.90;;;;;;4168332;28;20076;-58
2023/08/22 08:34:50;;;;;;;1.88;1.75;;;29.20;93.60;;;;;;4158308;28;20236;-58
2023/08/22 08:37:10;;;;;;;2.65;2.45;;;29.30;93.40;;;;;;4162878;28;20041;-58
2023/08/22 08:39:30;;;;;;;2.30;2.20;;;29.50;92.40;;;;;;4159950;28;20045;-58
2023/08/22 08:42:14;;;;;;;1.88;1.77;;;29.30;92.60;;;;;;4163749;28;20049;-58
2023/08/22 08:44:35;;;;;;;2.25;1.65;;;29.60;93.10;;;;;;4156218;28;20241;-58
2023/08/22 08:46:56;;;;;;;3.08;1.92;;;29.80;91.50;;;;;;4160133;28;20072;-58
2023/08/22 08:49:17;;;;;;;1.67;1.52;;;30.20;91.60;;;;;;4165290;28;20057;-58
2023/08/22 08:51:37;;;;;;;1.63;1.55;;;30.30;90.40;;;;;;4159709;28;20084;-58
2023/08/22 08:53:58;;;;;;;1.60;1.60;;;30.50;90.50;;;;;;4164223;28;20106;-59
2023/08/22 08:56:18;;;;;;;1.50;1.40;;;30.80;89.70;;;;;;4167043;28;20049;-57
2023/08/22 08:58:40;;;;;;;;;;;31.30;90.50;;;;;;4161621;28;20100;-58
2023/08/22 09:01:00;;;;;;;1.38;1.27;;;31.40;88.30;;;;;;4167117;28;19984;-58
2023/08/22 09:03:21;;;;;;;3.10;1.58;;;31.30;89.60;;;;;;4161684;28;20053;-58
2023/08/22 09:05:45;;;;;;;1.58;1.48;;;31.30;88.20;;;;;;4161776;28;20049;-59
2023/08/22 09:08:18;;;;;;;1.50;1.40;;;31.40;88.20;;;;;;4162617;28;20060;-58
2023/08/22 09:10:38;;;;;;;1.40;1.30;;;31.40;87.50;;;;;;4158786;28;20045;-59
2023/08/22 09:13:03;;;;;;;2.35;1.20;;;31.60;88.90;;;;;;4157282;28;20292;-58
2023/08/22 09:15:23;;;;;;;2.53;1.25;;;31.70;84.80;;;;;;4160168;28;20076;-58
2023/08/22 09:17:43;;;;;;;0.90;0.90;;;32.10;86.10;;;;;;4159643;28;20052;-59
2023/08/22 09:20:11;;;;;;;1.10;1.10;;;32.00;85.70;;;;;;4163283;28;20320;-58
2023/08/22 09:22:31;;;;;;;1.00;1.00;;;32.10;83.00;;;;;;4161154;28;20057;-58
2023/08/22 09:24:53;;;;;;;1.52;1.00;;;32.50;86.90;;;;;;4160276;28;20076;-58
2023/08/22 09:27:12;;;;;;;1.95;1.33;;;32.80;83.50;;;;;;4161136;28;20363;-57
2023/08/22 09:29:34;;;;;;;0.90;0.88;;;32.80;82.90;;;;;;4158007;28;20084;-58
2023/08/22 09:32:12;;;;;;;5.32;0.70;;;33.10;83.10;;;;;;4164598;28;20390;-58
2023/08/22 09:34:34;;;;;;;1.85;1.15;;;33.10;78.40;;;;;;4161710;28;20045;-58
2023/08/22 09:36:54;;;;;;;1.60;1.00;;;33.30;79.50;;;;;;4162064;28;20049;-58
2023/08/22 09:39:24;;;;;;;0.93;0.80;;;33.60;79.50;;;;;;4169546;28;20052;-58
2023/08/22 09:41:44;;;;;;;0.80;0.80;;;33.50;76.20;;;;;;4161136;28;20312;-58
2023/08/22 09:44:06;;;;;;;1.35;0.70;;;33.60;76.50;;;;;;4164831;28;20052;-58
2023/08/22 09:46:27;;;;;;;2.20;1.30;;;33.70;75.80;;;;;;4160592;28;20371;-58
2023/08/22 09:48:49;;;;;;;1.60;1.00;;;33.80;74.90;;;;;;4167638;28;20080;-58
2023/08/22 09:51:13;;;;;;;2.35;0.95;;;33.80;76.40;;;;;;4167958;28;20277;-58
2023/08/22 09:53:34;;;;;;;0.88;0.88;;;34.10;77.20;;;;;;4161634;28;20113;-58
2023/08/22 09:55:54;;;;;;;1.03;0.87;;;34.00;73.10;;;;;;4164969;28;20049;-59
2023/08/22 09:58:15;;;;;;;0.80;0.80;;;34.20;74.90;;;;;;4163085;28;20286;-58
2023/08/22 10:00:36;;;;;;;0.80;0.80;;;34.10;72.90;;;;;;4168278;28;20418;-58
2023/08/22 10:02:58;;;;;;;0.80;0.80;;;34.20;73.80;;;;;;4161408;28;20088;-58
2023/08/22 10:05:19;;;;;;;2.55;0.90;;;34.50;74.50;;;;;;4166945;28;20052;-58
2023/08/22 10:07:39;;;;;;;0.80;0.80;;;34.40;75.60;;;;;;4163569;28;20048;-58
2023/08/22 10:10:00;;;;;;;1.63;0.80;;;34.50;73.10;;;;;;4162488;28;20121;-58
2023/08/22 10:12:21;;;;;;;2.72;0.80;;;34.50;72.30;;;;;;4163749;28;20088;-58
2023/08/22 10:14:51;;;;;;;0.68;0.68;;;34.50;73.20;;;;;;4161903;28;20052;-58
2023/08/22 10:17:13;;;;;;;2.60;0.80;;;34.50;71.30;;;;;;4167914;28;20073;-58
2023/08/22 10:19:36;;;;;;;0.90;0.90;;;34.30;71.90;;;;;;4162185;28;20083;-58
2023/08/22 10:22:06;;;;;;;1.75;0.75;;;34.40;71.30;;;;;;4163881;28;20095;-58
2023/08/22 10:24:28;;;;;;;1.85;0.90;;;34.70;71.40;;;;;;4164709;28;20044;-58
2023/08/22 10:27:12;;;;;;;1.55;0.70;;;34.40;71.90;;;;;;4162904;28;20414;-58
2023/08/22 10:29:35;;;;;;;2.05;0.70;;;34.50;72.20;;;;;;4162699;28;20353;-58
2023/08/22 10:32:04;;;;;;;0.80;0.77;;;34.60;70.50;;;;;;4162145;28;20064;-59
2023/08/22 10:34:24;;;;;;;0.82;0.73;;;34.80;72.80;;;;;;4159801;28;20041;-59
2023/08/22 10:37:01;;;;;;;1.23;0.80;;;34.90;70.40;;;;;;4164550;28;20096;-59
2023/08/22 10:39:35;;;;;;;0.70;0.70;;;34.90;68.90;;;;;;4166851;28;20079;-58
2023/08/22 10:41:56;;;;;;;3.63;0.75;;;34.60;69.20;;;;;;4165205;28;20041;-58
2023/08/22 10:44:19;;;;;;;2.03;0.77;;;34.70;69.20;;;;;;4163337;28;20079;-58
2023/08/22 10:47:03;;;;;;;1.85;0.77;;;34.80;70.70;;;;;;4165339;28;20110;-58
2023/08/22 10:49:23;;;;;;;0.73;0.70;;;34.90;69.00;;;;;;4162086;28;20072;-58
2023/08/22 10:51:43;;;;;;;0.75;0.73;;;35.00;70.10;;;;;;4169926;28;20041;-58
2023/08/22 10:54:16;;;;;;;1.63;0.80;;;35.00;68.40;;;;;;4169528;28;20108;-58
2023/08/22 10:56:36;;;;;;;1.95;0.80;;;35.30;70.40;;;;;;4162238;28;20037;-59
2023/08/22 10:59:00;;;;;;;1.90;0.85;;;35.40;70.40;;;;;;4165084;28;20057;-59
2023/08/22 11:01:20;;;;;;;0.90;0.80;;;35.50;68.80;;;;;;4164634;28;20087;-58
2023/08/22 11:03:42;;;;;;;0.90;0.70;;;35.40;68.70;;;;;;4161659;28;20105;-59
2023/08/22 11:06:10;;;;;;;;;;;35.40;70.80;;;;;;4165174;28;20053;-58
2023/08/22 11:08:31;;;;;;;0.85;0.70;;;35.60;68.70;;;;;;4164498;28;20254;-59
2023/08/22 11:10:52;;;;;;;2.25;0.77;;;35.60;68.80;;;;;;4162358;28;20107;-58
2023/08/22 11:13:12;;;;;;;2.22;0.80;;;35.60;69.30;;;;;;4162959;28;20116;-59
2023/08/22 11:15:32;;;;;;;2.78;0.75;;;35.80;71.40;;;;;;4164778;28;20048;-58
2023/08/22 11:17:52;;;;;;;0.70;0.70;;;36.00;70.40;;;;;;4164318;28;20068;-58
2023/08/22 11:20:14;;;;;;;0.80;0.80;;;35.70;69.30;;;;;;4163821;28;20056;-58
2023/08/22 11:22:35;;;;;;;0.85;0.82;;;35.70;70.00;;;;;;4163343;28;20259;-58
2023/08/22 11:24:55;;;;;;;0.80;0.80;;;35.70;69.40;;;;;;4164215;28;20144;-58
2023/08/22 11:27:16;;;;;;;0.77;0.77;;;35.70;69.40;;;;;;4162980;28;20235;-58
2023/08/22 11:29:42;;;;;;;2.45;0.80;;;35.60;70.20;;;;;;4165832;28;20064;-58
2023/08/22 11:32:02;;;;;;;1.00;1.00;;;35.70;68.50;;;;;;4161217;28;20391;-58
2023/08/22 11:34:23;;;;;;;2.65;0.77;;;35.80;69.50;;;;;;4162838;28;20049;-58
2023/08/22 11:36:44;;;;;;;0.70;0.70;;;35.90;67.60;;;;;;4161069;28;20108;-57
2023/08/22 11:39:04;;;;;;;0.80;0.80;;;35.60;67.90;;;;;;4162370;28;20048;-59
2023/08/22 11:41:25;;;;;;;0.60;0.60;;;35.60;68.20;;;;;;4163232;28;20049;-59
2023/08/22 11:43:47;;;;;;;0.85;0.70;;;35.90;66.10;;;;;;4162288;28;20440;-59
2023/08/22 11:46:10;;;;;;;2.47;0.80;;;36.30;67.50;;;;;;4163251;28;20084;-59
2023/08/22 11:48:30;;;;;;;1.00;0.70;;;36.60;66.40;;;;;;4163491;28;20048;-58
2023/08/22 11:50:51;;;;;;;0.93;0.70;;;36.70;67.30;;;;;;4164517;28;20043;-58
2023/08/22 11:53:15;;;;;;;0.70;0.70;;;36.60;64.00;;;;;;4163664;28;20057;-59
2023/08/22 11:55:46;;;;;;;1.20;0.65;;;36.50;66.80;;;;;;4163751;28;20371;-59
2023/08/22 11:58:12;;;;;;;0.80;0.70;;;36.40;65.50;;;;;;4162499;28;20041;-59
2023/08/22 12:00:34;;;;;;;0.70;0.68;;;36.30;67.20;;;;;;4167280;28;20256;-59
2023/08/22 12:02:57;;;;;;;0.70;0.70;;;36.60;65.10;;;;;;4159423;28;20104;-59
2023/08/22 12:05:49;;;;;;;3.50;0.75;;;36.70;62.50;;;;;;4164729;28;20052;-59
2023/08/22 12:08:12;;;;;;;1.75;0.93;;;36.90;60.70;;;;;;4161738;28;20082;-59
2023/08/22 12:10:53;;;;;;;0.60;0.60;;;37.20;63.60;;;;;;4163405;28;20112;-59
2023/08/22 12:13:15;;;;;;;0.70;0.70;;;37.40;60.60;;;;;;4161863;28;20056;-59
2023/08/22 12:15:35;;;;;;;2.17;0.63;;;37.00;60.10;;;;;;4162769;28;20111;-58
2023/08/22 12:17:58;;;;;;;1.67;0.60;;;36.30;61.00;;;;;;4162770;28;20255;-59